sensor_id;sensor_type;location;lat;lon;timestamp;P1;durP1;ratioP1;P2;durP2;ratioP2
15012;SDS011;7603;49.432;11.418;2023-02-15T00:01:20;4.07;;;2.37;;
15012;SDS011;7603;49.432;11.418;2023-02-15T00:03:47;3.03;;;2.47;;
15012;SDS011;7603;49.432;11.418;2023-02-15T00:06:13;3.07;;;2.17;;
15012;SDS011;7603;49.432;11.418;2023-02-15T00:08:39;3.20;;;2.20;;
15012;SDS011;7603;49.432;11.418;2023-02-15T00:11:12;3.23;;;2.70;;
15012;SDS011;7603;49.432;11.418;2023-02-15T00:13:39;4.83;;;3.50;;
15012;SDS011;7603;49.432;11.418;2023-02-15T00:16:09;4.20;;;1.83;;
15012;SDS011;7603;49.432;11.418;2023-02-15T00:18:36;3.87;;;2.33;;
15012;SDS011;7603;49.432;11.418;2023-02-15T00:21:04;2.53;;;2.20;;
15012;SDS011;7603;49.432;11.418;2023-02-15T00:23:34;3.80;;;1.87;;
15012;SDS011;7603;49.432;11.418;2023-02-15T00:26:07;3.07;;;2.83;;
15012;SDS011;7603;49.432;11.418;2023-02-15T00:28:36;3.37;;;2.67;;
15012;SDS011;7603;49.432;11.418;2023-02-15T00:31:03;3.77;;;2.23;;
15012;SDS011;7603;49.432;11.418;2023-02-15T00:33:36;1.97;;;1.83;;
15012;SDS011;7603;49.432;11.418;2023-02-15T00:36:03;3.30;;;1.97;;
15012;SDS011;7603;49.432;11.418;2023-02-15T00:38:30;3.10;;;2.90;;
15012;SDS011;7603;49.432;11.418;2023-02-15T00:40:57;2.77;;;2.27;;
15012;SDS011;7603;49.432;11.418;2023-02-15T00:43:24;2.73;;;2.10;;
15012;SDS011;7603;49.432;11.418;2023-02-15T00:45:50;3.43;;;2.00;;
15012;SDS011;7603;49.432;11.418;2023-02-15T00:48:16;2.33;;;2.10;;
15012;SDS011;7603;49.432;11.418;2023-02-15T00:50:44;2.83;;;1.90;;
15012;SDS011;7603;49.432;11.418;2023-02-15T00:53:11;3.87;;;3.33;;
15012;SDS011;7603;49.432;11.418;2023-02-15T00:55:37;2.97;;;2.53;;
15012;SDS011;7603;49.432;11.418;2023-02-15T00:58:04;2.03;;;1.93;;
15012;SDS011;7603;49.432;11.418;2023-02-15T01:00:30;3.87;;;2.20;;
15012;SDS011;7603;49.432;11.418;2023-02-15T01:02:56;2.50;;;2.00;;
15012;SDS011;7603;49.432;11.418;2023-02-15T01:05:21;3.03;;;2.17;;
15012;SDS011;7603;49.432;11.418;2023-02-15T01:07:47;2.70;;;2.47;;
15012;SDS011;7603;49.432;11.418;2023-02-15T01:10:12;2.10;;;2.00;;
15012;SDS011;7603;49.432;11.418;2023-02-15T01:12:38;2.20;;;2.00;;
15012;SDS011;7603;49.432;11.418;2023-02-15T01:15:04;3.97;;;2.67;;
15012;SDS011;7603;49.432;11.418;2023-02-15T01:17:30;1.77;;;1.63;;
15012;SDS011;7603;49.432;11.418;2023-02-15T01:19:56;3.93;;;2.57;;
15012;SDS011;7603;49.432;11.418;2023-02-15T01:22:21;2.07;;;1.93;;
15012;SDS011;7603;49.432;11.418;2023-02-15T01:24:48;2.90;;;2.63;;
15012;SDS011;7603;49.432;11.418;2023-02-15T01:27:15;2.97;;;2.63;;
15012;SDS011;7603;49.432;11.418;2023-02-15T01:29:40;3.00;;;2.63;;
15012;SDS011;7603;49.432;11.418;2023-02-15T01:32:06;2.70;;;2.50;;
15012;SDS011;7603;49.432;11.418;2023-02-15T01:34:31;2.60;;;2.30;;
15012;SDS011;7603;49.432;11.418;2023-02-15T01:36:57;3.47;;;1.90;;
15012;SDS011;7603;49.432;11.418;2023-02-15T01:39:23;4.07;;;2.67;;
15012;SDS011;7603;49.432;11.418;2023-02-15T01:41:48;2.80;;;2.60;;
15012;SDS011;7603;49.432;11.418;2023-02-15T01:47:16;3.43;;;2.53;;
15012;SDS011;7603;49.432;11.418;2023-02-15T01:49:47;3.87;;;2.33;;
15012;SDS011;7603;49.432;11.418;2023-02-15T01:52:17;1.83;;;1.73;;
15012;SDS011;7603;49.432;11.418;2023-02-15T01:54:44;4.57;;;3.23;;
15012;SDS011;7603;49.432;11.418;2023-02-15T01:57:13;3.53;;;1.70;;
15012;SDS011;7603;49.432;11.418;2023-02-15T01:59:42;1.80;;;1.70;;
15012;SDS011;7603;49.432;11.418;2023-02-15T02:02:09;3.60;;;2.67;;
15012;SDS011;7603;49.432;11.418;2023-02-15T02:04:39;2.30;;;1.83;;
15012;SDS011;7603;49.432;11.418;2023-02-15T02:07:08;3.77;;;1.87;;
15012;SDS011;7603;49.432;11.418;2023-02-15T02:09:36;2.03;;;1.93;;
15012;SDS011;7603;49.432;11.418;2023-02-15T02:12:02;4.10;;;1.87;;
15012;SDS011;7603;49.432;11.418;2023-02-15T02:14:28;2.43;;;1.97;;
15012;SDS011;7603;49.432;11.418;2023-02-15T02:16:58;3.20;;;2.90;;
15012;SDS011;7603;49.432;11.418;2023-02-15T02:27:40;2.10;;;2.00;;
15012;SDS011;7603;49.432;11.418;2023-02-15T02:36:12;2.13;;;1.93;;
15012;SDS011;7603;49.432;11.418;2023-02-15T02:38:48;2.00;;;1.80;;
15012;SDS011;7603;49.432;11.418;2023-02-15T02:41:30;3.43;;;3.23;;
15012;SDS011;7603;49.432;11.418;2023-02-15T02:44:12;2.87;;;2.77;;
15012;SDS011;7603;49.432;11.418;2023-02-15T02:46:53;6.10;;;3.80;;
15012;SDS011;7603;49.432;11.418;2023-02-15T02:49:37;2.73;;;2.53;;
15012;SDS011;7603;49.432;11.418;2023-02-15T02:52:06;3.80;;;2.73;;
15012;SDS011;7603;49.432;11.418;2023-02-15T02:54:52;1.53;;;1.43;;
15012;SDS011;7603;49.432;11.418;2023-02-15T02:57:19;2.90;;;2.67;;
15012;SDS011;7603;49.432;11.418;2023-02-15T02:59:48;3.37;;;2.70;;
15012;SDS011;7603;49.432;11.418;2023-02-15T03:02:17;2.63;;;2.10;;
15012;SDS011;7603;49.432;11.418;2023-02-15T03:04:49;3.03;;;2.80;;
15012;SDS011;7603;49.432;11.418;2023-02-15T03:07:23;2.43;;;2.33;;
15012;SDS011;7603;49.432;11.418;2023-02-15T03:09:53;2.37;;;2.03;;
15012;SDS011;7603;49.432;11.418;2023-02-15T03:12:23;2.00;;;1.90;;
15012;SDS011;7603;49.432;11.418;2023-02-15T03:14:56;5.87;;;2.43;;
15012;SDS011;7603;49.432;11.418;2023-02-15T03:17:25;5.20;;;3.57;;
15012;SDS011;7603;49.432;11.418;2023-02-15T03:19:54;1.77;;;1.67;;
15012;SDS011;7603;49.432;11.418;2023-02-15T03:22:24;2.83;;;2.57;;
15012;SDS011;7603;49.432;11.418;2023-02-15T03:25:01;3.03;;;2.23;;
15012;SDS011;7603;49.432;11.418;2023-02-15T03:27:52;1.80;;;1.70;;
15012;SDS011;7603;49.432;11.418;2023-02-15T03:30:20;3.83;;;3.20;;
15012;SDS011;7603;49.432;11.418;2023-02-15T03:32:47;2.20;;;2.10;;
15012;SDS011;7603;49.432;11.418;2023-02-15T03:35:14;3.57;;;2.83;;
15012;SDS011;7603;49.432;11.418;2023-02-15T03:37:51;3.87;;;3.53;;
15012;SDS011;7603;49.432;11.418;2023-02-15T03:40:29;1.90;;;1.80;;
15012;SDS011;7603;49.432;11.418;2023-02-15T03:43:40;2.53;;;2.33;;
15012;SDS011;7603;49.432;11.418;2023-02-15T03:46:24;3.27;;;3.10;;
15012;SDS011;7603;49.432;11.418;2023-02-15T03:48:57;3.73;;;3.37;;
15012;SDS011;7603;49.432;11.418;2023-02-15T03:51:30;4.97;;;2.33;;
15012;SDS011;7603;49.432;11.418;2023-02-15T03:54:04;3.03;;;2.10;;
15012;SDS011;7603;49.432;11.418;2023-02-15T03:56:36;3.27;;;2.50;;
15012;SDS011;7603;49.432;11.418;2023-02-15T03:59:03;3.93;;;3.63;;
15012;SDS011;7603;49.432;11.418;2023-02-15T04:04:36;3.83;;;1.73;;
15012;SDS011;7603;49.432;11.418;2023-02-15T04:07:05;2.03;;;1.97;;
15012;SDS011;7603;49.432;11.418;2023-02-15T04:09:32;3.07;;;2.30;;
15012;SDS011;7603;49.432;11.418;2023-02-15T04:12:16;2.20;;;2.13;;
15012;SDS011;7603;49.432;11.418;2023-02-15T04:14:42;5.07;;;3.33;;
15012;SDS011;7603;49.432;11.418;2023-02-15T04:17:37;2.17;;;2.07;;
15012;SDS011;7603;49.432;11.418;2023-02-15T04:20:03;3.00;;;2.43;;
15012;SDS011;7603;49.432;11.418;2023-02-15T04:22:47;3.10;;;2.73;;
15012;SDS011;7603;49.432;11.418;2023-02-15T04:25:31;3.97;;;2.93;;
15012;SDS011;7603;49.432;11.418;2023-02-15T04:27:57;2.23;;;1.73;;
15012;SDS011;7603;49.432;11.418;2023-02-15T04:30:24;2.00;;;1.80;;
15012;SDS011;7603;49.432;11.418;2023-02-15T04:32:50;3.70;;;2.27;;
15012;SDS011;7603;49.432;11.418;2023-02-15T04:35:16;1.90;;;1.80;;
15012;SDS011;7603;49.432;11.418;2023-02-15T04:37:42;3.13;;;2.77;;
15012;SDS011;7603;49.432;11.418;2023-02-15T04:40:09;3.00;;;2.70;;
15012;SDS011;7603;49.432;11.418;2023-02-15T04:42:37;2.87;;;1.90;;
15012;SDS011;7603;49.432;11.418;2023-02-15T04:45:02;6.23;;;3.97;;
15012;SDS011;7603;49.432;11.418;2023-02-15T04:47:28;3.37;;;2.67;;
15012;SDS011;7603;49.432;11.418;2023-02-15T04:49:54;2.37;;;2.23;;
15012;SDS011;7603;49.432;11.418;2023-02-15T04:52:19;3.60;;;2.93;;
15012;SDS011;7603;49.432;11.418;2023-02-15T04:54:45;2.90;;;2.50;;
15012;SDS011;7603;49.432;11.418;2023-02-15T04:57:11;8.07;;;4.07;;
15012;SDS011;7603;49.432;11.418;2023-02-15T04:59:37;6.13;;;3.17;;
15012;SDS011;7603;49.432;11.418;2023-02-15T05:02:03;5.03;;;3.00;;
15012;SDS011;7603;49.432;11.418;2023-02-15T05:04:29;5.17;;;3.43;;
15012;SDS011;7603;49.432;11.418;2023-02-15T05:06:57;5.57;;;3.17;;
15012;SDS011;7603;49.432;11.418;2023-02-15T05:09:23;4.20;;;2.33;;
15012;SDS011;7603;49.432;11.418;2023-02-15T05:11:49;3.43;;;2.83;;
15012;SDS011;7603;49.432;11.418;2023-02-15T05:14:15;4.90;;;2.17;;
15012;SDS011;7603;49.432;11.418;2023-02-15T05:16:40;6.20;;;2.97;;
15012;SDS011;7603;49.432;11.418;2023-02-15T05:19:06;3.43;;;2.40;;
15012;SDS011;7603;49.432;11.418;2023-02-15T05:21:32;2.90;;;2.63;;
15012;SDS011;7603;49.432;11.418;2023-02-15T05:23:58;1.90;;;1.80;;
15012;SDS011;7603;49.432;11.418;2023-02-15T05:26:23;2.70;;;2.17;;
15012;SDS011;7603;49.432;11.418;2023-02-15T05:29:08;3.00;;;2.67;;
15012;SDS011;7603;49.432;11.418;2023-02-15T05:31:35;5.10;;;2.13;;
15012;SDS011;7603;49.432;11.418;2023-02-15T05:34:01;2.37;;;2.00;;
15012;SDS011;7603;49.432;11.418;2023-02-15T05:36:26;2.80;;;2.17;;
15012;SDS011;7603;49.432;11.418;2023-02-15T05:38:53;2.80;;;2.60;;
15012;SDS011;7603;49.432;11.418;2023-02-15T05:41:18;6.33;;;2.33;;
15012;SDS011;7603;49.432;11.418;2023-02-15T05:43:44;2.97;;;2.37;;
15012;SDS011;7603;49.432;11.418;2023-02-15T05:46:09;2.47;;;2.03;;
15012;SDS011;7603;49.432;11.418;2023-02-15T05:48:36;3.40;;;1.70;;
15012;SDS011;7603;49.432;11.418;2023-02-15T05:51:03;2.03;;;1.93;;
15012;SDS011;7603;49.432;11.418;2023-02-15T05:53:31;4.03;;;2.50;;
15012;SDS011;7603;49.432;11.418;2023-02-15T05:56:00;6.23;;;2.70;;
15012;SDS011;7603;49.432;11.418;2023-02-15T05:58:37;7.00;;;2.73;;
15012;SDS011;7603;49.432;11.418;2023-02-15T06:01:07;2.13;;;2.03;;
15012;SDS011;7603;49.432;11.418;2023-02-15T06:03:37;4.40;;;2.50;;
15012;SDS011;7603;49.432;11.418;2023-02-15T06:06:02;2.43;;;1.90;;
15012;SDS011;7603;49.432;11.418;2023-02-15T06:08:30;2.83;;;2.60;;
15012;SDS011;7603;49.432;11.418;2023-02-15T06:10:56;2.57;;;2.13;;
15012;SDS011;7603;49.432;11.418;2023-02-15T06:13:22;2.47;;;1.40;;
15012;SDS011;7603;49.432;11.418;2023-02-15T06:15:47;5.10;;;2.87;;
15012;SDS011;7603;49.432;11.418;2023-02-15T06:18:13;2.10;;;2.07;;
15012;SDS011;7603;49.432;11.418;2023-02-15T06:20:38;2.70;;;2.50;;
15012;SDS011;7603;49.432;11.418;2023-02-15T06:23:04;2.70;;;2.50;;
15012;SDS011;7603;49.432;11.418;2023-02-15T06:25:29;4.30;;;3.13;;
15012;SDS011;7603;49.432;11.418;2023-02-15T06:27:55;3.07;;;2.97;;
15012;SDS011;7603;49.432;11.418;2023-02-15T06:30:21;3.03;;;2.83;;
15012;SDS011;7603;49.432;11.418;2023-02-15T06:32:46;2.07;;;2.00;;
15012;SDS011;7603;49.432;11.418;2023-02-15T06:35:12;3.67;;;3.33;;
15012;SDS011;7603;49.432;11.418;2023-02-15T06:37:38;2.60;;;2.40;;
15012;SDS011;7603;49.432;11.418;2023-02-15T06:40:03;4.70;;;3.07;;
15012;SDS011;7603;49.432;11.418;2023-02-15T06:42:29;7.57;;;4.43;;
15012;SDS011;7603;49.432;11.418;2023-02-15T06:44:55;3.23;;;2.77;;
15012;SDS011;7603;49.432;11.418;2023-02-15T06:47:21;3.60;;;2.13;;
15012;SDS011;7603;49.432;11.418;2023-02-15T06:49:46;4.83;;;2.30;;
15012;SDS011;7603;49.432;11.418;2023-02-15T06:52:12;2.53;;;2.43;;
15012;SDS011;7603;49.432;11.418;2023-02-15T06:54:37;2.07;;;1.83;;
15012;SDS011;7603;49.432;11.418;2023-02-15T06:57:03;1.90;;;1.73;;
15012;SDS011;7603;49.432;11.418;2023-02-15T06:59:28;3.57;;;2.73;;
15012;SDS011;7603;49.432;11.418;2023-02-15T07:01:54;2.43;;;2.23;;
15012;SDS011;7603;49.432;11.418;2023-02-15T07:04:19;3.30;;;3.00;;
15012;SDS011;7603;49.432;11.418;2023-02-15T07:06:45;2.53;;;2.43;;
15012;SDS011;7603;49.432;11.418;2023-02-15T07:09:11;2.57;;;2.37;;
15012;SDS011;7603;49.432;11.418;2023-02-15T07:11:37;2.80;;;2.57;;
15012;SDS011;7603;49.432;11.418;2023-02-15T07:14:22;2.33;;;2.27;;
15012;SDS011;7603;49.432;11.418;2023-02-15T07:16:47;1.80;;;1.70;;
15012;SDS011;7603;49.432;11.418;2023-02-15T07:19:13;2.80;;;2.60;;
15012;SDS011;7603;49.432;11.418;2023-02-15T07:21:38;3.70;;;3.50;;
15012;SDS011;7603;49.432;11.418;2023-02-15T07:24:04;4.50;;;3.53;;
15012;SDS011;7603;49.432;11.418;2023-02-15T07:26:32;7.60;;;3.07;;
15012;SDS011;7603;49.432;11.418;2023-02-15T07:28:58;3.13;;;2.90;;
15012;SDS011;7603;49.432;11.418;2023-02-15T07:31:24;2.93;;;2.77;;
15012;SDS011;7603;49.432;11.418;2023-02-15T07:33:50;3.60;;;3.30;;
15012;SDS011;7603;49.432;11.418;2023-02-15T07:36:15;2.67;;;2.40;;
15012;SDS011;7603;49.432;11.418;2023-02-15T07:38:41;3.67;;;2.93;;
15012;SDS011;7603;49.432;11.418;2023-02-15T07:41:12;3.00;;;2.73;;
15012;SDS011;7603;49.432;11.418;2023-02-15T07:43:41;3.30;;;2.70;;
15012;SDS011;7603;49.432;11.418;2023-02-15T07:46:09;2.90;;;2.27;;
15012;SDS011;7603;49.432;11.418;2023-02-15T07:48:39;36.90;;;19.07;;
15012;SDS011;7603;49.432;11.418;2023-02-15T07:51:06;50.57;;;18.40;;
15012;SDS011;7603;49.432;11.418;2023-02-15T07:53:33;26.30;;;13.87;;
15012;SDS011;7603;49.432;11.418;2023-02-15T07:56:04;19.57;;;10.43;;
15012;SDS011;7603;49.432;11.418;2023-02-15T07:58:40;6.10;;;4.50;;
15012;SDS011;7603;49.432;11.418;2023-02-15T08:01:19;2.50;;;2.30;;
15012;SDS011;7603;49.432;11.418;2023-02-15T08:03:46;2.27;;;1.87;;
15012;SDS011;7603;49.432;11.418;2023-02-15T08:06:12;2.60;;;2.40;;
15012;SDS011;7603;49.432;11.418;2023-02-15T08:08:38;8.90;;;3.03;;
15012;SDS011;7603;49.432;11.418;2023-02-15T08:11:15;4.17;;;2.70;;
15012;SDS011;7603;49.432;11.418;2023-02-15T08:13:51;2.27;;;2.10;;
15012;SDS011;7603;49.432;11.418;2023-02-15T08:18:55;2.03;;;1.83;;
15012;SDS011;7603;49.432;11.418;2023-02-15T08:21:22;4.13;;;2.03;;
15012;SDS011;7603;49.432;11.418;2023-02-15T08:23:50;3.70;;;3.03;;
15012;SDS011;7603;49.432;11.418;2023-02-15T08:26:16;6.60;;;3.17;;
15012;SDS011;7603;49.432;11.418;2023-02-15T08:28:42;3.27;;;2.40;;
15012;SDS011;7603;49.432;11.418;2023-02-15T08:31:10;7.37;;;3.83;;
15012;SDS011;7603;49.432;11.418;2023-02-15T08:33:37;3.73;;;2.40;;
15012;SDS011;7603;49.432;11.418;2023-02-15T08:36:05;7.37;;;3.40;;
15012;SDS011;7603;49.432;11.418;2023-02-15T08:38:32;3.33;;;2.65;;
15012;SDS011;7603;49.432;11.418;2023-02-15T08:40:58;3.93;;;2.80;;
15012;SDS011;7603;49.432;11.418;2023-02-15T08:43:38;6.80;;;3.88;;
15012;SDS011;7603;49.432;11.418;2023-02-15T08:46:04;5.60;;;2.63;;
15012;SDS011;7603;49.432;11.418;2023-02-15T08:48:30;5.53;;;3.65;;
15012;SDS011;7603;49.432;11.418;2023-02-15T08:50:56;4.25;;;2.88;;
15012;SDS011;7603;49.432;11.418;2023-02-15T08:53:21;2.50;;;2.30;;
15012;SDS011;7603;49.432;11.418;2023-02-15T08:55:54;3.50;;;3.08;;
15012;SDS011;7603;49.432;11.418;2023-02-15T08:58:21;5.90;;;2.92;;
15012;SDS011;7603;49.432;11.418;2023-02-15T09:00:46;3.92;;;3.25;;
15012;SDS011;7603;49.432;11.418;2023-02-15T09:03:12;5.25;;;4.05;;
15012;SDS011;7603;49.432;11.418;2023-02-15T09:05:37;4.60;;;3.50;;
15012;SDS011;7603;49.432;11.418;2023-02-15T09:08:03;7.50;;;2.67;;
15012;SDS011;7603;49.432;11.418;2023-02-15T09:10:29;6.30;;;3.28;;
15012;SDS011;7603;49.432;11.418;2023-02-15T09:12:54;3.87;;;3.23;;
15012;SDS011;7603;49.432;11.418;2023-02-15T09:15:20;4.72;;;3.08;;
15012;SDS011;7603;49.432;11.418;2023-02-15T09:17:45;6.03;;;2.65;;
15012;SDS011;7603;49.432;11.418;2023-02-15T09:20:11;4.50;;;3.08;;
15012;SDS011;7603;49.432;11.418;2023-02-15T09:22:37;2.73;;;2.23;;
15012;SDS011;7603;49.432;11.418;2023-02-15T09:25:02;4.80;;;2.80;;
15012;SDS011;7603;49.432;11.418;2023-02-15T09:27:29;3.03;;;2.53;;
15012;SDS011;7603;49.432;11.418;2023-02-15T09:29:54;4.17;;;3.20;;
15012;SDS011;7603;49.432;11.418;2023-02-15T09:32:20;4.30;;;2.30;;
15012;SDS011;7603;49.432;11.418;2023-02-15T09:34:46;3.80;;;3.40;;
15012;SDS011;7603;49.432;11.418;2023-02-15T09:37:12;5.33;;;3.57;;
15012;SDS011;7603;49.432;11.418;2023-02-15T09:39:39;4.28;;;2.65;;
15012;SDS011;7603;49.432;11.418;2023-02-15T09:47:14;5.35;;;3.55;;
15012;SDS011;7603;49.432;11.418;2023-02-15T09:55:43;6.57;;;3.08;;
15012;SDS011;7603;49.432;11.418;2023-02-15T10:06:37;3.97;;;2.75;;
15012;SDS011;7603;49.432;11.418;2023-02-15T10:09:13;3.45;;;3.13;;
15012;SDS011;7603;49.432;11.418;2023-02-15T10:17:29;7.60;;;4.65;;
15012;SDS011;7603;49.432;11.418;2023-02-15T10:20:07;5.63;;;3.90;;
15012;SDS011;7603;49.432;11.418;2023-02-15T10:25:21;2.67;;;2.33;;
15012;SDS011;7603;49.432;11.418;2023-02-15T10:27:54;3.33;;;2.25;;
15012;SDS011;7603;49.432;11.418;2023-02-15T10:33:02;3.40;;;2.53;;
15012;SDS011;7603;49.432;11.418;2023-02-15T10:35:41;3.22;;;2.42;;
15012;SDS011;7603;49.432;11.418;2023-02-15T10:59:42;2.78;;;2.58;;
15012;SDS011;7603;49.432;11.418;2023-02-15T11:02:26;2.58;;;2.38;;
15012;SDS011;7603;49.432;11.418;2023-02-15T11:05:37;4.45;;;2.75;;
15012;SDS011;7603;49.432;11.418;2023-02-15T11:08:17;3.70;;;2.55;;
15012;SDS011;7603;49.432;11.418;2023-02-15T11:10:47;2.95;;;2.20;;
15012;SDS011;7603;49.432;11.418;2023-02-15T11:13:17;3.03;;;2.25;;
15012;SDS011;7603;49.432;11.418;2023-02-15T11:15:49;3.58;;;2.88;;
15012;SDS011;7603;49.432;11.418;2023-02-15T11:18:21;4.35;;;3.88;;
15012;SDS011;7603;49.432;11.418;2023-02-15T11:21:11;5.20;;;2.00;;
15012;SDS011;7603;49.432;11.418;2023-02-15T11:23:49;9.27;;;4.55;;
15012;SDS011;7603;49.432;11.418;2023-02-15T11:26:20;4.53;;;3.63;;
15012;SDS011;7603;49.432;11.418;2023-02-15T11:29:02;3.00;;;2.70;;
15012;SDS011;7603;49.432;11.418;2023-02-15T11:31:44;2.90;;;2.60;;
15012;SDS011;7603;49.432;11.418;2023-02-15T11:34:15;2.60;;;2.40;;
15012;SDS011;7603;49.432;11.418;2023-02-15T11:36:48;3.35;;;2.50;;
15012;SDS011;7603;49.432;11.418;2023-02-15T11:39:17;3.13;;;2.90;;
15012;SDS011;7603;49.432;11.418;2023-02-15T11:41:46;2.83;;;2.22;;
15012;SDS011;7603;49.432;11.418;2023-02-15T11:46:46;3.08;;;2.80;;
15012;SDS011;7603;49.432;11.418;2023-02-15T11:51:48;3.97;;;2.45;;
15012;SDS011;7603;49.432;11.418;2023-02-15T11:54:17;3.20;;;2.25;;
15012;SDS011;7603;49.432;11.418;2023-02-15T11:56:48;3.60;;;3.30;;
15012;SDS011;7603;49.432;11.418;2023-02-15T11:59:17;3.55;;;3.05;;
15012;SDS011;7603;49.432;11.418;2023-02-15T12:01:52;2.80;;;2.20;;
15012;SDS011;7603;49.432;11.418;2023-02-15T12:07:09;2.88;;;2.60;;
15012;SDS011;7603;49.432;11.418;2023-02-15T12:12:26;2.63;;;2.40;;
15012;SDS011;7603;49.432;11.418;2023-02-15T12:14:59;3.47;;;2.58;;
15012;SDS011;7603;49.432;11.418;2023-02-15T12:17:31;3.35;;;2.58;;
15012;SDS011;7603;49.432;11.418;2023-02-15T12:20:03;3.70;;;3.20;;
15012;SDS011;7603;49.432;11.418;2023-02-15T12:22:37;2.67;;;2.47;;
15012;SDS011;7603;49.432;11.418;2023-02-15T12:25:16;3.85;;;3.00;;
15012;SDS011;7603;49.432;11.418;2023-02-15T12:27:48;5.13;;;4.63;;
15012;SDS011;7603;49.432;11.418;2023-02-15T12:30:18;7.25;;;6.20;;
15012;SDS011;7603;49.432;11.418;2023-02-15T12:33:08;3.35;;;3.15;;
15012;SDS011;7603;49.432;11.418;2023-02-15T12:35:59;3.08;;;2.78;;
15012;SDS011;7603;49.432;11.418;2023-02-15T12:38:29;4.43;;;4.00;;
15012;SDS011;7603;49.432;11.418;2023-02-15T12:40:59;6.85;;;5.90;;
15012;SDS011;7603;49.432;11.418;2023-02-15T12:43:31;3.58;;;3.28;;
15012;SDS011;7603;49.432;11.418;2023-02-15T12:48:39;3.25;;;3.05;;
15012;SDS011;7603;49.432;11.418;2023-02-15T12:51:08;3.08;;;2.85;;
15012;SDS011;7603;49.432;11.418;2023-02-15T12:53:38;2.90;;;2.60;;
15012;SDS011;7603;49.432;11.418;2023-02-15T12:56:05;3.13;;;2.83;;
15012;SDS011;7603;49.432;11.418;2023-02-15T12:58:36;2.65;;;2.45;;
15012;SDS011;7603;49.432;11.418;2023-02-15T13:03:59;3.15;;;2.85;;
15012;SDS011;7603;49.432;11.418;2023-02-15T13:06:28;2.83;;;2.63;;
15012;SDS011;7603;49.432;11.418;2023-02-15T13:08:57;2.83;;;2.63;;
15012;SDS011;7603;49.432;11.418;2023-02-15T13:11:31;2.88;;;2.65;;
15012;SDS011;7603;49.432;11.418;2023-02-15T13:14:02;2.78;;;2.58;;
15012;SDS011;7603;49.432;11.418;2023-02-15T13:16:40;3.45;;;3.22;;
15012;SDS011;7603;49.432;11.418;2023-02-15T13:21:51;2.67;;;2.47;;
15012;SDS011;7603;49.432;11.418;2023-02-15T13:26:50;2.95;;;2.75;;
15012;SDS011;7603;49.432;11.418;2023-02-15T13:31:48;3.45;;;3.15;;
15012;SDS011;7603;49.432;11.418;2023-02-15T13:34:16;4.07;;;3.22;;
15012;SDS011;7603;49.432;11.418;2023-02-15T13:39:20;3.70;;;3.40;;
15012;SDS011;7603;49.432;11.418;2023-02-15T13:42:02;4.00;;;3.67;;
15012;SDS011;7603;49.432;11.418;2023-02-15T13:55:52;5.30;;;4.07;;
15012;SDS011;7603;49.432;11.418;2023-02-15T13:58:30;4.50;;;4.10;;
15012;SDS011;7603;49.432;11.418;2023-02-15T14:03:35;5.30;;;3.55;;
15012;SDS011;7603;49.432;11.418;2023-02-15T14:08:49;5.97;;;4.43;;
15012;SDS011;7603;49.432;11.418;2023-02-15T14:14:21;4.38;;;3.97;;
15012;SDS011;7603;49.432;11.418;2023-02-15T14:17:20;3.83;;;3.53;;
15012;SDS011;7603;49.432;11.418;2023-02-15T14:22:54;3.88;;;3.33;;
15012;SDS011;7603;49.432;11.418;2023-02-15T14:25:45;4.10;;;3.75;;
15012;SDS011;7603;49.432;11.418;2023-02-15T14:30:55;6.95;;;4.20;;
15012;SDS011;7603;49.432;11.418;2023-02-15T14:33:32;20.27;;;11.10;;
15012;SDS011;7603;49.432;11.418;2023-02-15T14:36:02;6.65;;;4.88;;
15012;SDS011;7603;49.432;11.418;2023-02-15T14:46:42;4.03;;;3.67;;
15012;SDS011;7603;49.432;11.418;2023-02-15T14:59:53;3.45;;;3.15;;
15012;SDS011;7603;49.432;11.418;2023-02-15T15:05:20;4.88;;;4.20;;
15012;SDS011;7603;49.432;11.418;2023-02-15T15:07:50;5.00;;;4.47;;
15012;SDS011;7603;49.432;11.418;2023-02-15T15:12:49;6.47;;;5.10;;
15012;SDS011;7603;49.432;11.418;2023-02-15T15:17:54;4.72;;;4.30;;
15012;SDS011;7603;49.432;11.418;2023-02-15T15:23:32;5.88;;;4.78;;
15012;SDS011;7603;49.432;11.418;2023-02-15T15:28:52;4.63;;;4.00;;
15012;SDS011;7603;49.432;11.418;2023-02-15T15:33:57;6.65;;;5.70;;
15012;SDS011;7603;49.432;11.418;2023-02-15T15:37:27;4.82;;;4.38;;
15012;SDS011;7603;49.432;11.418;2023-02-15T15:50:30;6.40;;;4.25;;
15012;SDS011;7603;49.432;11.418;2023-02-15T15:52:57;5.05;;;3.88;;
15012;SDS011;7603;49.432;11.418;2023-02-15T15:55:26;4.38;;;3.78;;
15012;SDS011;7603;49.432;11.418;2023-02-15T15:57:58;5.60;;;4.22;;
15012;SDS011;7603;49.432;11.418;2023-02-15T16:00:34;6.57;;;5.60;;
15012;SDS011;7603;49.432;11.418;2023-02-15T16:03:00;10.68;;;5.63;;
15012;SDS011;7603;49.432;11.418;2023-02-15T16:05:26;11.27;;;5.80;;
15012;SDS011;7603;49.432;11.418;2023-02-15T16:07:51;10.38;;;6.05;;
15012;SDS011;7603;49.432;11.418;2023-02-15T16:10:22;7.97;;;4.47;;
15012;SDS011;7603;49.432;11.418;2023-02-15T16:12:52;8.25;;;4.88;;
15012;SDS011;7603;49.432;11.418;2023-02-15T16:15:20;6.07;;;4.40;;
15012;SDS011;7603;49.432;11.418;2023-02-15T16:17:50;6.78;;;4.95;;
15012;SDS011;7603;49.432;11.418;2023-02-15T16:20:23;15.60;;;7.47;;
15012;SDS011;7603;49.432;11.418;2023-02-15T16:22:58;19.70;;;8.63;;
15012;SDS011;7603;49.432;11.418;2023-02-15T16:25:42;8.93;;;5.60;;
15012;SDS011;7603;49.432;11.418;2023-02-15T16:28:29;10.95;;;6.00;;
15012;SDS011;7603;49.432;11.418;2023-02-15T16:31:14;9.05;;;5.22;;
15012;SDS011;7603;49.432;11.418;2023-02-15T16:33:41;10.63;;;5.55;;
15012;SDS011;7603;49.432;11.418;2023-02-15T16:36:12;14.27;;;5.30;;
15012;SDS011;7603;49.432;11.418;2023-02-15T16:41:21;9.02;;;4.90;;
15012;SDS011;7603;49.432;11.418;2023-02-15T16:43:52;10.55;;;6.68;;
15012;SDS011;7603;49.432;11.418;2023-02-15T16:46:26;14.63;;;6.25;;
15012;SDS011;7603;49.432;11.418;2023-02-15T16:48:55;10.03;;;5.93;;
15012;SDS011;7603;49.432;11.418;2023-02-15T16:51:27;18.40;;;8.63;;
15012;SDS011;7603;49.432;11.418;2023-02-15T16:53:55;18.57;;;8.00;;
15012;SDS011;7603;49.432;11.418;2023-02-15T16:56:26;21.07;;;9.13;;
15012;SDS011;7603;49.432;11.418;2023-02-15T16:58:57;39.63;;;13.70;;
15012;SDS011;7603;49.432;11.418;2023-02-15T17:01:25;11.53;;;5.57;;
15012;SDS011;7603;49.432;11.418;2023-02-15T17:07:03;9.70;;;5.23;;
15012;SDS011;7603;49.432;11.418;2023-02-15T17:09:31;20.27;;;8.23;;
15012;SDS011;7603;49.432;11.418;2023-02-15T17:11:59;12.33;;;7.37;;
15012;SDS011;7603;49.432;11.418;2023-02-15T17:14:27;10.83;;;6.27;;
15012;SDS011;7603;49.432;11.418;2023-02-15T17:17:00;10.17;;;5.83;;
15012;SDS011;7603;49.432;11.418;2023-02-15T17:19:33;12.30;;;6.20;;
15012;SDS011;7603;49.432;11.418;2023-02-15T17:22:15;12.73;;;6.30;;
15012;SDS011;7603;49.432;11.418;2023-02-15T17:24:44;7.40;;;5.50;;
15012;SDS011;7603;49.432;11.418;2023-02-15T17:27:15;9.03;;;4.93;;
15012;SDS011;7603;49.432;11.418;2023-02-15T17:29:51;8.87;;;5.67;;
15012;SDS011;7603;49.432;11.418;2023-02-15T17:32:22;8.33;;;5.93;;
15012;SDS011;7603;49.432;11.418;2023-02-15T17:37:45;12.10;;;5.83;;
15012;SDS011;7603;49.432;11.418;2023-02-15T17:42:58;16.17;;;7.33;;
15012;SDS011;7603;49.432;11.418;2023-02-15T17:45:25;13.93;;;6.97;;
15012;SDS011;7603;49.432;11.418;2023-02-15T17:47:55;16.50;;;8.00;;
15012;SDS011;7603;49.432;11.418;2023-02-15T17:50:24;10.87;;;5.87;;
15012;SDS011;7603;49.432;11.418;2023-02-15T17:52:52;15.40;;;8.20;;
15012;SDS011;7603;49.432;11.418;2023-02-15T17:55:20;12.00;;;7.93;;
15012;SDS011;7603;49.432;11.418;2023-02-15T17:58:10;9.00;;;5.93;;
15012;SDS011;7603;49.432;11.418;2023-02-15T18:00:41;10.03;;;5.50;;
15012;SDS011;7603;49.432;11.418;2023-02-15T18:03:38;8.33;;;5.93;;
15012;SDS011;7603;49.432;11.418;2023-02-15T18:06:29;11.17;;;6.13;;
15012;SDS011;7603;49.432;11.418;2023-02-15T18:09:15;9.73;;;6.20;;